sensor_id;sensor_type;location;lat;lon;timestamp;temperature;humidity
67093;SHT31;54011;50.772;7.730;2022-10-31T00:01:13;10.40;89.15
67093;SHT31;54011;50.772;7.730;2022-10-31T00:03:39;10.36;89.20
67093;SHT31;54011;50.772;7.730;2022-10-31T00:06:04;10.39;89.45
67093;SHT31;54011;50.772;7.730;2022-10-31T00:08:30;10.49;89.24
67093;SHT31;54011;50.772;7.730;2022-10-31T00:10:56;10.50;89.02
67093;SHT31;54011;50.772;7.730;2022-10-31T00:13:22;10.42;89.26
67093;SHT31;54011;50.772;7.730;2022-10-31T00:15:47;10.49;89.23
67093;SHT31;54011;50.772;7.730;2022-10-31T00:18:13;10.46;89.20
67093;SHT31;54011;50.772;7.730;2022-10-31T00:20:38;10.39;89.31
67093;SHT31;54011;50.772;7.730;2022-10-31T00:23:05;10.45;89.28
67093;SHT31;54011;50.772;7.730;2022-10-31T00:25:36;10.47;89.20
67093;SHT31;54011;50.772;7.730;2022-10-31T00:28:02;10.37;89.20
67093;SHT31;54011;50.772;7.730;2022-10-31T00:30:28;10.37;89.19
67093;SHT31;54011;50.772;7.730;2022-10-31T00:32:53;10.33;89.27
67093;SHT31;54011;50.772;7.730;2022-10-31T00:35:18;10.30;89.25
67093;SHT31;54011;50.772;7.730;2022-10-31T00:37:44;10.28;89.55
67093;SHT31;54011;50.772;7.730;2022-10-31T00:40:10;10.26;89.89
67093;SHT31;54011;50.772;7.730;2022-10-31T00:42:35;10.19;89.66
67093;SHT31;54011;50.772;7.730;2022-10-31T00:45:01;10.18;90.40
67093;SHT31;54011;50.772;7.730;2022-10-31T00:47:26;10.15;90.25
67093;SHT31;54011;50.772;7.730;2022-10-31T00:49:52;10.15;90.15
67093;SHT31;54011;50.772;7.730;2022-10-31T00:52:17;10.01;90.73
67093;SHT31;54011;50.772;7.730;2022-10-31T00:54:42;10.15;90.31
67093;SHT31;54011;50.772;7.730;2022-10-31T00:57:08;10.06;90.56
67093;SHT31;54011;50.772;7.730;2022-10-31T00:59:34;9.96;90.39
67093;SHT31;54011;50.772;7.730;2022-10-31T01:01:59;10.05;90.31
67093;SHT31;54011;50.772;7.730;2022-10-31T01:04:24;10.08;90.65
67093;SHT31;54011;50.772;7.730;2022-10-31T01:06:50;10.01;90.66
67093;SHT31;54011;50.772;7.730;2022-10-31T01:09:15;10.03;90.53
67093;SHT31;54011;50.772;7.730;2022-10-31T01:11:41;10.08;90.48
67093;SHT31;54011;50.772;7.730;2022-10-31T01:14:08;10.09;90.46
67093;SHT31;54011;50.772;7.730;2022-10-31T01:16:34;10.05;91.17
67093;SHT31;54011;50.772;7.730;2022-10-31T01:19:01;10.16;90.96
67093;SHT31;54011;50.772;7.730;2022-10-31T01:21:29;10.18;91.15
67093;SHT31;54011;50.772;7.730;2022-10-31T01:23:58;10.15;90.55
67093;SHT31;54011;50.772;7.730;2022-10-31T01:26:26;10.33;90.60
67093;SHT31;54011;50.772;7.730;2022-10-31T01:28:55;10.25;89.86
67093;SHT31;54011;50.772;7.730;2022-10-31T01:31:23;10.22;89.49
67093;SHT31;54011;50.772;7.730;2022-10-31T01:33:49;10.19;90.45
67093;SHT31;54011;50.772;7.730;2022-10-31T01:36:27;10.23;90.17
67093;SHT31;54011;50.772;7.730;2022-10-31T01:38:56;10.26;90.39
67093;SHT31;54011;50.772;7.730;2022-10-31T01:41:24;10.29;90.50
67093;SHT31;54011;50.772;7.730;2022-10-31T01:43:53;10.37;90.35
67093;SHT31;54011;50.772;7.730;2022-10-31T01:46:31;10.25;90.62
67093;SHT31;54011;50.772;7.730;2022-10-31T01:48:59;10.33;91.16
67093;SHT31;54011;50.772;7.730;2022-10-31T01:51:31;10.42;91.04
67093;SHT31;54011;50.772;7.730;2022-10-31T01:54:01;10.35;91.39
67093;SHT31;54011;50.772;7.730;2022-10-31T01:56:28;10.39;91.25
67093;SHT31;54011;50.772;7.730;2022-10-31T01:58:55;10.43;91.09
67093;SHT31;54011;50.772;7.730;2022-10-31T02:01:22;10.42;91.11
67093;SHT31;54011;50.772;7.730;2022-10-31T02:03:48;10.39;91.25
67093;SHT31;54011;50.772;7.730;2022-10-31T02:06:21;10.32;91.08
67093;SHT31;54011;50.772;7.730;2022-10-31T02:08:50;10.20;90.62
67093;SHT31;54011;50.772;7.730;2022-10-31T02:11:16;10.10;90.08
67093;SHT31;54011;50.772;7.730;2022-10-31T02:13:41;10.03;91.53
67093;SHT31;54011;50.772;7.730;2022-10-31T02:16:09;9.96;91.65
67093;SHT31;54011;50.772;7.730;2022-10-31T02:18:34;9.92;90.38
67093;SHT31;54011;50.772;7.730;2022-10-31T02:21:19;9.78;88.98
67093;SHT31;54011;50.772;7.730;2022-10-31T02:26:49;9.55;90.36
67093;SHT31;54011;50.772;7.730;2022-10-31T02:31:52;9.57;89.94
67093;SHT31;54011;50.772;7.730;2022-10-31T02:34:30;9.44;90.05
67093;SHT31;54011;50.772;7.730;2022-10-31T02:37:24;9.36;90.22
67093;SHT31;54011;50.772;7.730;2022-10-31T02:43:36;9.33;90.80
67093;SHT31;54011;50.772;7.730;2022-10-31T02:46:24;9.34;91.01
67093;SHT31;54011;50.772;7.730;2022-10-31T02:48:52;9.36;90.40
67093;SHT31;54011;50.772;7.730;2022-10-31T02:51:19;9.26;90.32
67093;SHT31;54011;50.772;7.730;2022-10-31T02:53:46;9.34;91.35
67093;SHT31;54011;50.772;7.730;2022-10-31T02:56:15;9.40;91.74
67093;SHT31;54011;50.772;7.730;2022-10-31T02:58:55;9.40;91.28
67093;SHT31;54011;50.772;7.730;2022-10-31T03:04:28;9.41;90.79
67093;SHT31;54011;50.772;7.730;2022-10-31T03:12:46;9.38;90.64
67093;SHT31;54011;50.772;7.730;2022-10-31T03:15:19;9.36;90.89
67093;SHT31;54011;50.772;7.730;2022-10-31T03:18:08;9.31;90.73
67093;SHT31;54011;50.772;7.730;2022-10-31T03:20:44;9.26;90.72
67093;SHT31;54011;50.772;7.730;2022-10-31T03:23:14;9.16;91.04
67093;SHT31;54011;50.772;7.730;2022-10-31T03:25:41;9.22;90.71
67093;SHT31;54011;50.772;7.730;2022-10-31T03:28:09;9.23;91.00
67093;SHT31;54011;50.772;7.730;2022-10-31T03:30:37;9.22;90.67
67093;SHT31;54011;50.772;7.730;2022-10-31T03:33:08;9.07;90.68
67093;SHT31;54011;50.772;7.730;2022-10-31T03:35:40;9.00;91.13
67093;SHT31;54011;50.772;7.730;2022-10-31T03:38:06;8.92;90.98
67093;SHT31;54011;50.772;7.730;2022-10-31T03:40:34;8.88;90.76
67093;SHT31;54011;50.772;7.730;2022-10-31T03:43:05;8.79;91.21
67093;SHT31;54011;50.772;7.730;2022-10-31T03:45:37;8.76;91.54
67093;SHT31;54011;50.772;7.730;2022-10-31T03:48:05;8.83;91.47
67093;SHT31;54011;50.772;7.730;2022-10-31T03:50:39;8.80;91.53
67093;SHT31;54011;50.772;7.730;2022-10-31T03:53:13;8.86;91.44
67093;SHT31;54011;50.772;7.730;2022-10-31T03:55:51;8.86;91.29
67093;SHT31;54011;50.772;7.730;2022-10-31T03:58:23;8.92;91.46
67093;SHT31;54011;50.772;7.730;2022-10-31T04:00:54;9.00;91.16
67093;SHT31;54011;50.772;7.730;2022-10-31T04:03:24;8.99;91.99
67093;SHT31;54011;50.772;7.730;2022-10-31T04:05:56;9.10;91.89
67093;SHT31;54011;50.772;7.730;2022-10-31T04:08:28;9.03;92.36
67093;SHT31;54011;50.772;7.730;2022-10-31T04:10:56;9.03;92.55
67093;SHT31;54011;50.772;7.730;2022-10-31T04:13:27;9.09;92.18
67093;SHT31;54011;50.772;7.730;2022-10-31T04:16:01;9.02;92.56
67093;SHT31;54011;50.772;7.730;2022-10-31T04:18:27;9.10;92.51
67093;SHT31;54011;50.772;7.730;2022-10-31T04:21:03;9.17;91.99
67093;SHT31;54011;50.772;7.730;2022-10-31T04:23:30;9.15;92.26
67093;SHT31;54011;50.772;7.730;2022-10-31T04:25:56;9.12;91.78
67093;SHT31;54011;50.772;7.730;2022-10-31T04:28:22;9.09;91.94
67093;SHT31;54011;50.772;7.730;2022-10-31T04:30:47;9.02;91.65
67093;SHT31;54011;50.772;7.730;2022-10-31T04:33:13;8.89;91.76
67093;SHT31;54011;50.772;7.730;2022-10-31T04:35:39;8.90;91.94
67093;SHT31;54011;50.772;7.730;2022-10-31T04:38:05;8.97;91.78
67093;SHT31;54011;50.772;7.730;2022-10-31T04:40:31;8.85;91.70
67093;SHT31;54011;50.772;7.730;2022-10-31T04:43:00;8.80;91.88
67093;SHT31;54011;50.772;7.730;2022-10-31T04:45:27;8.78;92.27
67093;SHT31;54011;50.772;7.730;2022-10-31T04:47:53;8.85;92.03
67093;SHT31;54011;50.772;7.730;2022-10-31T04:50:18;8.83;91.98
67093;SHT31;54011;50.772;7.730;2022-10-31T04:52:45;8.83;91.85
67093;SHT31;54011;50.772;7.730;2022-10-31T04:55:14;8.76;91.72
67093;SHT31;54011;50.772;7.730;2022-10-31T04:57:58;8.57;91.65
67093;SHT31;54011;50.772;7.730;2022-10-31T05:00:25;8.64;91.85
67093;SHT31;54011;50.772;7.730;2022-10-31T05:02:54;8.71;91.71
67093;SHT31;54011;50.772;7.730;2022-10-31T05:05:24;8.61;91.72
67093;SHT31;54011;50.772;7.730;2022-10-31T05:07:51;8.61;91.44
67093;SHT31;54011;50.772;7.730;2022-10-31T05:10:21;8.57;91.48
67093;SHT31;54011;50.772;7.730;2022-10-31T05:13:00;8.57;91.52
67093;SHT31;54011;50.772;7.730;2022-10-31T05:15:45;8.54;91.16
67093;SHT31;54011;50.772;7.730;2022-10-31T05:18:34;8.54;91.82
67093;SHT31;54011;50.772;7.730;2022-10-31T05:21:29;8.54;91.67
67093;SHT31;54011;50.772;7.730;2022-10-31T05:23:58;8.48;91.54
67093;SHT31;54011;50.772;7.730;2022-10-31T05:26:24;8.35;92.05
67093;SHT31;54011;50.772;7.730;2022-10-31T05:28:51;8.35;92.18
67093;SHT31;54011;50.772;7.730;2022-10-31T05:31:17;8.34;92.21
67093;SHT31;54011;50.772;7.730;2022-10-31T05:33:42;8.38;91.86
67093;SHT31;54011;50.772;7.730;2022-10-31T05:36:28;8.40;91.99
67093;SHT31;54011;50.772;7.730;2022-10-31T05:38:58;8.45;92.08
67093;SHT31;54011;50.772;7.730;2022-10-31T05:41:29;8.52;92.08
67093;SHT31;54011;50.772;7.730;2022-10-31T05:44:03;8.58;93.59
67093;SHT31;54011;50.772;7.730;2022-10-31T05:46:31;8.64;92.09
67093;SHT31;54011;50.772;7.730;2022-10-31T05:49:16;8.49;90.70
67093;SHT31;54011;50.772;7.730;2022-10-31T05:51:57;8.17;91.24
67093;SHT31;54011;50.772;7.730;2022-10-31T05:54:35;8.26;91.69
67093;SHT31;54011;50.772;7.730;2022-10-31T05:57:00;8.20;91.95
67093;SHT31;54011;50.772;7.730;2022-10-31T05:59:28;8.23;91.86
67093;SHT31;54011;50.772;7.730;2022-10-31T06:01:54;8.21;92.00
67093;SHT31;54011;50.772;7.730;2022-10-31T06:04:46;8.34;92.95
67093;SHT31;54011;50.772;7.730;2022-10-31T06:07:11;8.40;93.45
67093;SHT31;54011;50.772;7.730;2022-10-31T06:09:37;8.42;92.45
67093;SHT31;54011;50.772;7.730;2022-10-31T06:12:02;8.51;92.08
67093;SHT31;54011;50.772;7.730;2022-10-31T06:14:48;8.48;92.15
67093;SHT31;54011;50.772;7.730;2022-10-31T06:17:13;8.48;92.08
67093;SHT31;54011;50.772;7.730;2022-10-31T06:19:41;8.38;92.14
67093;SHT31;54011;50.772;7.730;2022-10-31T06:22:09;8.31;91.59
67093;SHT31;54011;50.772;7.730;2022-10-31T06:24:37;8.18;91.78
67093;SHT31;54011;50.772;7.730;2022-10-31T06:27:15;8.03;91.73
67093;SHT31;54011;50.772;7.730;2022-10-31T06:29:41;8.01;91.94
67093;SHT31;54011;50.772;7.730;2022-10-31T06:32:10;8.10;91.88
67093;SHT31;54011;50.772;7.730;2022-10-31T06:34:40;8.30;92.61
67093;SHT31;54011;50.772;7.730;2022-10-31T06:37:08;8.42;93.15
67093;SHT31;54011;50.772;7.730;2022-10-31T06:39:34;8.52;92.45
67093;SHT31;54011;50.772;7.730;2022-10-31T06:41:59;8.58;91.76
67093;SHT31;54011;50.772;7.730;2022-10-31T06:44:26;8.49;91.67
67093;SHT31;54011;50.772;7.730;2022-10-31T06:46:54;8.58;92.13
67093;SHT31;54011;50.772;7.730;2022-10-31T06:49:38;8.61;91.97
67093;SHT31;54011;50.772;7.730;2022-10-31T06:52:10;8.72;92.24
67093;SHT31;54011;50.772;7.730;2022-10-31T06:54:35;8.54;91.81
67093;SHT31;54011;50.772;7.730;2022-10-31T06:57:01;8.52;91.52
67093;SHT31;54011;50.772;7.730;2022-10-31T06:59:27;8.57;91.60
67093;SHT31;54011;50.772;7.730;2022-10-31T07:02:13;8.65;91.91
67093;SHT31;54011;50.772;7.730;2022-10-31T07:04:41;8.75;91.93
67093;SHT31;54011;50.772;7.730;2022-10-31T07:07:07;8.88;91.84
67093;SHT31;54011;50.772;7.730;2022-10-31T07:09:33;8.99;92.16
67093;SHT31;54011;50.772;7.730;2022-10-31T07:12:02;9.12;91.55
67093;SHT31;54011;50.772;7.730;2022-10-31T07:14:29;9.09;90.86
67093;SHT31;54011;50.772;7.730;2022-10-31T07:16:54;9.10;90.81
67093;SHT31;54011;50.772;7.730;2022-10-31T07:19:30;9.33;91.29
67093;SHT31;54011;50.772;7.730;2022-10-31T07:21:56;9.41;91.04
67093;SHT31;54011;50.772;7.730;2022-10-31T07:24:25;9.30;89.86
67093;SHT31;54011;50.772;7.730;2022-10-31T07:27:09;9.41;90.00
67093;SHT31;54011;50.772;7.730;2022-10-31T07:29:34;9.51;90.99
67093;SHT31;54011;50.772;7.730;2022-10-31T07:32:00;9.74;91.51
67093;SHT31;54011;50.772;7.730;2022-10-31T07:34:27;9.99;91.31
67093;SHT31;54011;50.772;7.730;2022-10-31T07:37:11;10.09;91.14
67093;SHT31;54011;50.772;7.730;2022-10-31T07:39:36;10.25;90.61
67093;SHT31;54011;50.772;7.730;2022-10-31T07:42:03;10.32;89.40
67093;SHT31;54011;50.772;7.730;2022-10-31T07:44:30;10.26;89.52
67093;SHT31;54011;50.772;7.730;2022-10-31T07:47:38;10.36;89.24
67093;SHT31;54011;50.772;7.730;2022-10-31T07:50:27;10.43;87.38
67093;SHT31;54011;50.772;7.730;2022-10-31T07:53:13;10.49;87.78
67093;SHT31;54011;50.772;7.730;2022-10-31T07:55:54;10.39;87.89
67093;SHT31;54011;50.772;7.730;2022-10-31T07:58:36;10.32;88.27
67093;SHT31;54011;50.772;7.730;2022-10-31T08:01:02;10.53;87.95
67093;SHT31;54011;50.772;7.730;2022-10-31T08:03:37;10.64;86.73
67093;SHT31;54011;50.772;7.730;2022-10-31T08:06:08;10.61;86.19
67093;SHT31;54011;50.772;7.730;2022-10-31T08:08:53;10.68;86.85
67093;SHT31;54011;50.772;7.730;2022-10-31T08:11:18;10.81;87.10
67093;SHT31;54011;50.772;7.730;2022-10-31T08:13:44;10.91;87.95
67093;SHT31;54011;50.772;7.730;2022-10-31T08:16:12;11.04;89.19
67093;SHT31;54011;50.772;7.730;2022-10-31T08:18:48;11.34;88.35
67093;SHT31;54011;50.772;7.730;2022-10-31T08:21:14;11.48;88.42
67093;SHT31;54011;50.772;7.730;2022-10-31T08:23:41;11.66;87.96
67093;SHT31;54011;50.772;7.730;2022-10-31T08:26:07;11.83;86.77
67093;SHT31;54011;50.772;7.730;2022-10-31T08:28:32;11.94;87.28
67093;SHT31;54011;50.772;7.730;2022-10-31T08:30:58;11.98;86.86
67093;SHT31;54011;50.772;7.730;2022-10-31T08:33:46;11.94;86.87
67093;SHT31;54011;50.772;7.730;2022-10-31T08:36:17;12.10;86.93
67093;SHT31;54011;50.772;7.730;2022-10-31T08:38:54;12.26;86.17
67093;SHT31;54011;50.772;7.730;2022-10-31T08:41:20;12.48;85.79
67093;SHT31;54011;50.772;7.730;2022-10-31T08:43:46;12.41;86.70
67093;SHT31;54011;50.772;7.730;2022-10-31T08:46:11;12.35;86.07
67093;SHT31;54011;50.772;7.730;2022-10-31T08:48:39;12.51;85.70
67093;SHT31;54011;50.772;7.730;2022-10-31T08:51:04;12.71;85.06
67093;SHT31;54011;50.772;7.730;2022-10-31T08:53:30;12.85;84.54
67093;SHT31;54011;50.772;7.730;2022-10-31T08:56:14;13.03;84.90
67093;SHT31;54011;50.772;7.730;2022-10-31T08:58:40;13.33;83.77
67093;SHT31;54011;50.772;7.730;2022-10-31T09:01:06;13.51;83.15
67093;SHT31;54011;50.772;7.730;2022-10-31T09:03:31;13.42;83.27
67093;SHT31;54011;50.772;7.730;2022-10-31T09:06:00;13.95;82.08
67093;SHT31;54011;50.772;7.730;2022-10-31T09:08:29;14.00;81.91
67093;SHT31;54011;50.772;7.730;2022-10-31T09:10:57;14.30;81.04
67093;SHT31;54011;50.772;7.730;2022-10-31T09:13:42;14.74;79.21
67093;SHT31;54011;50.772;7.730;2022-10-31T09:16:27;14.81;79.30
67093;SHT31;54011;50.772;7.730;2022-10-31T09:18:53;15.15;78.66
67093;SHT31;54011;50.772;7.730;2022-10-31T09:21:19;15.10;78.09
67093;SHT31;54011;50.772;7.730;2022-10-31T09:23:45;15.45;77.46
67093;SHT31;54011;50.772;7.730;2022-10-31T09:26:11;15.46;77.39
67093;SHT31;54011;50.772;7.730;2022-10-31T09:28:39;15.78;76.67
67093;SHT31;54011;50.772;7.730;2022-10-31T09:31:10;15.56;77.49
67093;SHT31;54011;50.772;7.730;2022-10-31T09:33:57;15.42;78.57
67093;SHT31;54011;50.772;7.730;2022-10-31T09:36:35;16.02;76.78
67093;SHT31;54011;50.772;7.730;2022-10-31T09:39:02;16.13;76.31
67093;SHT31;54011;50.772;7.730;2022-10-31T09:41:30;15.93;77.32
67093;SHT31;54011;50.772;7.730;2022-10-31T09:44:09;16.18;75.12
67093;SHT31;54011;50.772;7.730;2022-10-31T09:46:52;16.35;75.58
67093;SHT31;54011;50.772;7.730;2022-10-31T09:49:42;16.63;75.16
67093;SHT31;54011;50.772;7.730;2022-10-31T09:52:26;17.04;73.82
67093;SHT31;54011;50.772;7.730;2022-10-31T09:55:00;16.89;74.41
67093;SHT31;54011;50.772;7.730;2022-10-31T09:57:33;16.98;73.26
67093;SHT31;54011;50.772;7.730;2022-10-31T09:59:59;17.27;72.60
67093;SHT31;54011;50.772;7.730;2022-10-31T10:02:38;16.89;73.70
67093;SHT31;54011;50.772;7.730;2022-10-31T10:05:18;17.19;72.60
67093;SHT31;54011;50.772;7.730;2022-10-31T10:07:54;17.30;72.85
67093;SHT31;54011;50.772;7.730;2022-10-31T10:10:50;17.43;72.42
67093;SHT31;54011;50.772;7.730;2022-10-31T10:16:47;17.46;73.04
67093;SHT31;54011;50.772;7.730;2022-10-31T10:30:22;18.25;69.82
67093;SHT31;54011;50.772;7.730;2022-10-31T10:32:54;18.24;70.72
67093;SHT31;54011;50.772;7.730;2022-10-31T10:35:28;18.72;69.43
67093;SHT31;54011;50.772;7.730;2022-10-31T10:40:45;19.03;69.10
67093;SHT31;54011;50.772;7.730;2022-10-31T10:43:35;19.35;67.94
67093;SHT31;54011;50.772;7.730;2022-10-31T10:54:22;19.61;67.19
67093;SHT31;54011;50.772;7.730;2022-10-31T10:57:04;19.65;67.61
67093;SHT31;54011;50.772;7.730;2022-10-31T10:59:35;20.08;66.39
67093;SHT31;54011;50.772;7.730;2022-10-31T11:02:16;19.82;66.37
67093;SHT31;54011;50.772;7.730;2022-10-31T11:04:42;19.36;67.92
67093;SHT31;54011;50.772;7.730;2022-10-31T11:07:10;19.69;67.72
67093;SHT31;54011;50.772;7.730;2022-10-31T11:09:37;19.64;67.71
67093;SHT31;54011;50.772;7.730;2022-10-31T11:12:27;19.36;68.45
67093;SHT31;54011;50.772;7.730;2022-10-31T11:14:54;19.47;68.38
67093;SHT31;54011;50.772;7.730;2022-10-31T11:17:36;19.93;67.17
67093;SHT31;54011;50.772;7.730;2022-10-31T11:22:41;19.74;68.12
67093;SHT31;54011;50.772;7.730;2022-10-31T11:25:23;19.95;67.30
67093;SHT31;54011;50.772;7.730;2022-10-31T11:27:59;19.97;66.63
67093;SHT31;54011;50.772;7.730;2022-10-31T11:30:25;20.24;66.73
67093;SHT31;54011;50.772;7.730;2022-10-31T11:32:51;20.40;66.51
67093;SHT31;54011;50.772;7.730;2022-10-31T11:35:18;20.16;67.21
67093;SHT31;54011;50.772;7.730;2022-10-31T11:37:46;19.90;66.56
67093;SHT31;54011;50.772;7.730;2022-10-31T11:40:22;20.51;66.28
67093;SHT31;54011;50.772;7.730;2022-10-31T11:42:48;20.37;66.25
67093;SHT31;54011;50.772;7.730;2022-10-31T11:45:17;20.13;67.05
67093;SHT31;54011;50.772;7.730;2022-10-31T11:47:47;19.74;68.52
67093;SHT31;54011;50.772;7.730;2022-10-31T11:50:23;20.19;66.53
67093;SHT31;54011;50.772;7.730;2022-10-31T11:52:50;20.30;66.25
67093;SHT31;54011;50.772;7.730;2022-10-31T11:55:38;20.44;66.27
67093;SHT31;54011;50.772;7.730;2022-10-31T11:58:04;20.68;66.69
67093;SHT31;54011;50.772;7.730;2022-10-31T12:00:38;20.98;65.37
67093;SHT31;54011;50.772;7.730;2022-10-31T12:05:49;21.15;64.47
67093;SHT31;54011;50.772;7.730;2022-10-31T12:08:16;21.02;64.40
67093;SHT31;54011;50.772;7.730;2022-10-31T12:10:51;21.50;63.79
67093;SHT31;54011;50.772;7.730;2022-10-31T12:13:36;21.47;63.63
67093;SHT31;54011;50.772;7.730;2022-10-31T12:16:19;21.93;62.49
67093;SHT31;54011;50.772;7.730;2022-10-31T12:18:56;21.70;63.38
67093;SHT31;54011;50.772;7.730;2022-10-31T12:21:52;21.97;61.87
67093;SHT31;54011;50.772;7.730;2022-10-31T12:27:08;22.20;59.97
67093;SHT31;54011;50.772;7.730;2022-10-31T12:33:19;22.05;55.55
67093;SHT31;54011;50.772;7.730;2022-10-31T12:35:29;21.86;56.55
67093;SHT31;54011;50.772;7.730;2022-10-31T12:43:46;22.92;58.39
67093;SHT31;54011;50.772;7.730;2022-10-31T12:49:21;22.77;55.56
67093;SHT31;54011;50.772;7.730;2022-10-31T12:52:45;22.89;53.99
67093;SHT31;54011;50.772;7.730;2022-10-31T12:57:37;22.21;54.41
67093;SHT31;54011;50.772;7.730;2022-10-31T13:00:12;21.91;54.65
67093;SHT31;54011;50.772;7.730;2022-10-31T13:05:33;21.72;56.57
67093;SHT31;54011;50.772;7.730;2022-10-31T13:08:14;21.41;57.18
67093;SHT31;54011;50.772;7.730;2022-10-31T13:10:45;21.21;56.63
67093;SHT31;54011;50.772;7.730;2022-10-31T13:13:22;21.15;57.41
67093;SHT31;54011;50.772;7.730;2022-10-31T13:15:52;21.18;56.87
67093;SHT31;54011;50.772;7.730;2022-10-31T13:18:27;21.09;57.26
67093;SHT31;54011;50.772;7.730;2022-10-31T13:20:53;21.04;58.23
67093;SHT31;54011;50.772;7.730;2022-10-31T13:23:31;21.01;58.16
67093;SHT31;54011;50.772;7.730;2022-10-31T13:26:01;21.04;58.61
67093;SHT31;54011;50.772;7.730;2022-10-31T13:28:45;21.04;58.84
67093;SHT31;54011;50.772;7.730;2022-10-31T13:31:11;20.60;60.06
67093;SHT31;54011;50.772;7.730;2022-10-31T13:33:41;20.60;59.54
67093;SHT31;54011;50.772;7.730;2022-10-31T13:46:33;20.51;58.27
67093;SHT31;54011;50.772;7.730;2022-10-31T13:49:03;20.47;58.38
67093;SHT31;54011;50.772;7.730;2022-10-31T13:51:31;20.63;58.53
67093;SHT31;54011;50.772;7.730;2022-10-31T13:56:27;20.36;59.16
67093;SHT31;54011;50.772;7.730;2022-10-31T14:01:36;20.32;59.65
67093;SHT31;54011;50.772;7.730;2022-10-31T14:04:16;20.26;60.75
67093;SHT31;54011;50.772;7.730;2022-10-31T14:09:20;20.14;61.09
67093;SHT31;54011;50.772;7.730;2022-10-31T14:11:47;20.02;61.87
67093;SHT31;54011;50.772;7.730;2022-10-31T14:14:14;19.99;62.66
67093;SHT31;54011;50.772;7.730;2022-10-31T14:16:43;19.83;63.01
67093;SHT31;54011;50.772;7.730;2022-10-31T14:19:19;19.86;62.82
67093;SHT31;54011;50.772;7.730;2022-10-31T14:21:50;19.79;63.37
67093;SHT31;54011;50.772;7.730;2022-10-31T14:26:58;19.74;63.58
67093;SHT31;54011;50.772;7.730;2022-10-31T14:29:29;19.61;63.59
67093;SHT31;54011;50.772;7.730;2022-10-31T14:34:42;19.64;64.83
67093;SHT31;54011;50.772;7.730;2022-10-31T14:51:20;19.41;65.83
67093;SHT31;54011;50.772;7.730;2022-10-31T14:53:54;19.35;66.77
67093;SHT31;54011;50.772;7.730;2022-10-31T14:56:29;19.28;66.35
67093;SHT31;54011;50.772;7.730;2022-10-31T14:58:59;19.41;65.45
67093;SHT31;54011;50.772;7.730;2022-10-31T15:01:32;19.57;66.21
67093;SHT31;54011;50.772;7.730;2022-10-31T15:04:09;19.68;66.38
67093;SHT31;54011;50.772;7.730;2022-10-31T15:06:42;19.86;65.65
67093;SHT31;54011;50.772;7.730;2022-10-31T15:09:25;20.44;62.12
67093;SHT31;54011;50.772;7.730;2022-10-31T15:11:51;20.65;62.37
67093;SHT31;54011;50.772;7.730;2022-10-31T15:14:23;20.70;62.64
67093;SHT31;54011;50.772;7.730;2022-10-31T15:16:48;20.81;62.52
67093;SHT31;54011;50.772;7.730;2022-10-31T15:19:19;21.11;61.55
67093;SHT31;54011;50.772;7.730;2022-10-31T15:21:46;21.06;62.80
67093;SHT31;54011;50.772;7.730;2022-10-31T15:24:15;20.94;62.82
67093;SHT31;54011;50.772;7.730;2022-10-31T15:26:46;20.77;62.59
67093;SHT31;54011;50.772;7.730;2022-10-31T15:29:14;20.45;63.69
67093;SHT31;54011;50.772;7.730;2022-10-31T15:31:56;19.92;65.96
67093;SHT31;54011;50.772;7.730;2022-10-31T15:34:34;19.89;66.13
67093;SHT31;54011;50.772;7.730;2022-10-31T15:37:01;19.61;66.59
67093;SHT31;54011;50.772;7.730;2022-10-31T15:39:27;19.25;67.24
67093;SHT31;54011;50.772;7.730;2022-10-31T15:41:55;19.07;66.94
67093;SHT31;54011;50.772;7.730;2022-10-31T15:44:25;18.87;67.77
67093;SHT31;54011;50.772;7.730;2022-10-31T15:46:56;18.63;68.49
67093;SHT31;54011;50.772;7.730;2022-10-31T15:49:33;18.48;68.59
67093;SHT31;54011;50.772;7.730;2022-10-31T15:52:12;18.22;69.35
67093;SHT31;54011;50.772;7.730;2022-10-31T15:54:48;18.18;69.61
67093;SHT31;54011;50.772;7.730;2022-10-31T15:57:16;17.93;70.24
67093;SHT31;54011;50.772;7.730;2022-10-31T15:59:46;17.81;70.48
67093;SHT31;54011;50.772;7.730;2022-10-31T16:02:13;17.69;71.22
67093;SHT31;54011;50.772;7.730;2022-10-31T16:04:59;17.54;71.62
67093;SHT31;54011;50.772;7.730;2022-10-31T16:07:29;17.40;72.04
67093;SHT31;54011;50.772;7.730;2022-10-31T16:09:58;17.23;72.60
67093;SHT31;54011;50.772;7.730;2022-10-31T16:12:30;17.02;73.54
67093;SHT31;54011;50.772;7.730;2022-10-31T16:14:57;16.94;73.69
67093;SHT31;54011;50.772;7.730;2022-10-31T16:17:24;16.84;73.45
67093;SHT31;54011;50.772;7.730;2022-10-31T16:19:55;16.71;73.25
67093;SHT31;54011;50.772;7.730;2022-10-31T16:22:26;16.75;72.52
67093;SHT31;54011;50.772;7.730;2022-10-31T16:27:26;16.58;73.08
67093;SHT31;54011;50.772;7.730;2022-10-31T16:29:55;16.51;73.41
67093;SHT31;54011;50.772;7.730;2022-10-31T16:32:25;16.43;73.75
67093;SHT31;54011;50.772;7.730;2022-10-31T16:35:23;16.38;74.28
67093;SHT31;54011;50.772;7.730;2022-10-31T16:37:49;16.28;74.59
67093;SHT31;54011;50.772;7.730;2022-10-31T16:40:15;16.24;75.05
67093;SHT31;54011;50.772;7.730;2022-10-31T16:42:41;16.17;75.57
67093;SHT31;54011;50.772;7.730;2022-10-31T16:45:12;16.10;75.83
67093;SHT31;54011;50.772;7.730;2022-10-31T16:47:38;16.06;76.33
67093;SHT31;54011;50.772;7.730;2022-10-31T16:50:10;15.95;76.60
67093;SHT31;54011;50.772;7.730;2022-10-31T16:52:37;15.87;76.92
67093;SHT31;54011;50.772;7.730;2022-10-31T16:55:02;15.89;77.18
67093;SHT31;54011;50.772;7.730;2022-10-31T16:57:29;15.83;77.38
67093;SHT31;54011;50.772;7.730;2022-10-31T17:00:06;15.73;77.83
67093;SHT31;54011;50.772;7.730;2022-10-31T17:02:35;15.55;78.32
67093;SHT31;54011;50.772;7.730;2022-10-31T17:05:00;15.46;78.57
67093;SHT31;54011;50.772;7.730;2022-10-31T17:07:25;15.42;78.72
67093;SHT31;54011;50.772;7.730;2022-10-31T17:09:51;15.30;79.12
67093;SHT31;54011;50.772;7.730;2022-10-31T17:12:18;15.27;79.13
67093;SHT31;54011;50.772;7.730;2022-10-31T17:14:49;15.15;79.58
67093;SHT31;54011;50.772;7.730;2022-10-31T17:17:16;15.11;79.91
67093;SHT31;54011;50.772;7.730;2022-10-31T17:19:43;15.10;79.74
67093;SHT31;54011;50.772;7.730;2022-10-31T17:22:12;15.04;79.73
67093;SHT31;54011;50.772;7.730;2022-10-31T17:24:40;15.01;80.14
67093;SHT31;54011;50.772;7.730;2022-10-31T17:27:27;15.01;79.71
67093;SHT31;54011;50.772;7.730;2022-10-31T17:29:53;15.04;79.56
67093;SHT31;54011;50.772;7.730;2022-10-31T17:32:21;15.01;79.93
67093;SHT31;54011;50.772;7.730;2022-10-31T17:34:47;14.86;80.47
67093;SHT31;54011;50.772;7.730;2022-10-31T17:37:12;14.67;80.91
67093;SHT31;54011;50.772;7.730;2022-10-31T17:39:38;14.69;80.85
67093;SHT31;54011;50.772;7.730;2022-10-31T17:42:04;14.57;81.01
67093;SHT31;54011;50.772;7.730;2022-10-31T17:44:29;14.56;81.23
67093;SHT31;54011;50.772;7.730;2022-10-31T17:46:54;14.47;81.47
67093;SHT31;54011;50.772;7.730;2022-10-31T17:49:20;14.39;81.91